Time;durP1;ratioP1;P1;durP2;ratioP2;P2;SDS_P1;SDS_P2;PMS_P1;PMS_P2;Temp;Humidity;BMP_temperature;BMP_pressure;BME280_temperature;BME280_humidity;BME280_pressure;Samples;Min_cycle;Max_cycle;Signal;HPM_P1;HPM_P2
2024/01/08 00:03:22;;;;;;;0.10;0.10;;;;;;;-7.42;61.51;102362.72;15632502;28;20493;-47
2024/01/08 00:10:58;;;;;;;0.10;0.10;;;;;;;-7.49;62.43;102362.09;15667870;28;20060;-48
2024/01/08 00:18:32;;;;;;;0.82;0.80;;;;;;;-7.47;62.67;102365.50;15672890;28;20116;-51
2024/01/08 00:26:06;;;;;;;0.10;0.10;;;;;;;-7.53;61.82;102372.69;15668317;28;20130;-47
2024/01/08 00:33:40;;;;;;;0.10;0.10;;;;;;;-7.47;62.36;102380.28;15667634;28;20045;-48
2024/01/08 00:41:16;;;;;;;0.10;0.10;;;;;;;-7.54;63.50;102373.63;15661256;28;20041;-49
2024/01/08 00:48:49;;;;;;;0.10;0.10;;;;;;;-7.11;62.50;102382.50;15676020;28;20041;-48
2024/01/08 00:56:24;;;;;;;0.10;0.10;;;;;;;-7.53;63.41;102378.75;15665281;28;20063;-47
2024/01/08 01:03:59;;;;;;;0.10;0.10;;;;;;;-7.56;64.46;102378.00;15680028;28;20198;-48
2024/01/08 01:11:38;;;;;;;0.10;0.10;;;;;;;-7.47;64.50;102383.75;15664842;28;20048;-48
2024/01/08 01:19:11;;;;;;;0.10;0.10;;;;;;;-7.63;64.94;102389.56;15654467;28;20045;-47
2024/01/08 01:26:48;;;;;;;0.10;0.10;;;;;;;-7.55;64.67;102408.41;15682168;28;20199;-50
2024/01/08 01:34:21;;;;;;;0.15;0.15;;;;;;;-7.46;64.63;102405.47;15651065;28;20060;-47
2024/01/08 01:41:56;;;;;;;0.03;0.03;;;;;;;-7.85;64.36;102395.50;15666239;28;20113;-50
2024/01/08 01:49:31;;;;;;;0.10;0.10;;;;;;;-7.63;64.61;102416.50;15664677;28;20055;-49
2024/01/08 01:57:06;;;;;;;0.10;0.10;;;;;;;-7.39;64.45;102417.41;15667597;28;20049;-51
2024/01/08 02:04:44;;;;;;;0.10;0.10;;;;;;;-7.57;64.13;102416.28;15665181;28;20037;-48
2024/01/08 02:12:27;;;;;;;0.10;0.10;;;;;;;-7.64;64.80;102412.19;15656243;28;20098;-47
2024/01/08 02:20:00;;;;;;;0.10;0.10;;;;;;;-7.67;64.41;102416.66;15651929;28;20045;-49
2024/01/08 02:27:35;;;;;;;0.10;0.10;;;;;;;-7.65;64.59;102420.03;15665096;28;20414;-51
2024/01/08 02:35:09;;;;;;;0.10;0.10;;;;;;;-7.67;64.28;102429.69;15678087;28;20044;-49
2024/01/08 02:42:45;;;;;;;0.10;0.10;;;;;;;-7.85;64.50;102442.41;15676163;28;20037;-49
2024/01/08 02:50:21;;;;;;;0.10;0.10;;;;;;;-7.60;63.40;102454.63;15677412;28;20417;-50
2024/01/08 02:57:56;;;;;;;0.10;0.10;;;;;;;-7.71;63.66;102460.22;15662503;28;20041;-46
2024/01/08 03:05:29;;;;;;;0.10;0.10;;;;;;;-7.88;63.55;102478.13;15649362;28;20041;-50
2024/01/08 03:13:04;;;;;;;0.10;0.10;;;;;;;-7.98;62.13;102482.78;15657296;28;20045;-50
2024/01/08 03:20:38;;;;;;;0.10;0.10;;;;;;;-8.03;62.30;102482.94;15664660;28;20223;-53
2024/01/08 03:28:17;;;;;;;0.10;0.10;;;;;;;-8.10;62.64;102489.25;15648972;28;20056;-51
2024/01/08 03:35:53;;;;;;;0.10;0.10;;;;;;;-8.20;63.51;102505.22;15671136;28;20047;-49
2024/01/08 03:43:28;;;;;;;0.10;0.10;;;;;;;-8.17;63.06;102497.28;15671358;28;20125;-49
2024/01/08 03:51:02;;;;;;;0.10;0.10;;;;;;;-8.18;62.30;102521.63;15675417;28;20120;-47
2024/01/08 03:58:38;;;;;;;0.10;0.10;;;;;;;-8.35;63.51;102519.53;15667486;28;20132;-49
2024/01/08 04:06:12;;;;;;;0.45;0.45;;;;;;;-8.25;63.10;102541.81;15650475;28;20037;-49
2024/01/08 04:13:50;;;;;;;0.10;0.10;;;;;;;-8.31;63.70;102535.00;15675402;28;20049;-48
2024/01/08 04:21:25;;;;;;;0.10;0.10;;;;;;;-8.36;63.73;102565.53;15667520;28;20570;-47
2024/01/08 04:29:00;;;;;;;0.10;0.10;;;;;;;-8.41;65.07;102558.78;15672756;28;20537;-47
2024/01/08 04:36:42;;;;;;;0.10;0.10;;;;;;;-8.27;64.06;102570.50;15683101;28;20049;-49
2024/01/08 04:44:21;;;;;;;0.10;0.10;;;;;;;-8.43;64.12;102579.69;15683135;28;20056;-50
2024/01/08 04:51:55;;;;;;;0.10;0.10;;;;;;;-8.30;63.42;102583.63;15693514;28;20060;-48
2024/01/08 04:59:31;;;;;;;0.10;0.10;;;;;;;-8.48;64.41;102594.59;15683352;28;20072;-49
2024/01/08 05:07:05;;;;;;;0.10;0.10;;;;;;;-8.25;63.60;102599.13;15692400;28;20052;-48
2024/01/08 05:14:42;;;;;;;0.08;0.08;;;;;;;-8.31;63.94;102605.31;15673882;28;20045;-60
2024/01/08 05:22:17;;;;;;;0.00;0.00;;;;;;;-7.90;62.59;102608.50;15637735;28;20049;-51
2024/01/08 05:29:54;;;;;;;0.10;0.10;;;;;;;-8.11;63.34;102610.00;15679777;28;20545;-48
2024/01/08 05:37:28;;;;;;;0.10;0.10;;;;;;;-8.22;63.24;102614.63;15679254;28;20124;-54
2024/01/08 05:45:02;;;;;;;0.10;0.10;;;;;;;-8.44;63.25;102613.56;15653946;28;20052;-52
2024/01/08 05:52:36;;;;;;;0.10;0.10;;;;;;;-8.29;63.09;102608.75;15672535;28;20064;-50
2024/01/08 06:00:12;;;;;;;0.10;0.10;;;;;;;-8.45;63.52;102620.50;15711064;22;20055;-48
2024/01/08 06:07:47;;;;;;;0.10;0.10;;;;;;;-8.44;63.80;102645.66;15719122;28;20101;-46
2024/01/08 06:15:22;;;;;;;0.10;0.10;;;;;;;-8.43;64.33;102650.00;15733973;28;20049;-47
2024/01/08 06:22:55;;;;;;;0.10;0.10;;;;;;;-8.45;63.99;102662.19;15718729;28;20040;-48
2024/01/08 06:30:31;;;;;;;0.10;0.10;;;;;;;-8.51;65.13;102664.94;15739163;28;20137;-47
2024/01/08 06:38:05;;;;;;;0.10;0.10;;;;;;;-8.31;64.49;102680.00;15738308;28;20048;-46
2024/01/08 06:45:40;;;;;;;0.25;0.25;;;;;;;-8.46;65.33;102683.91;15731723;28;20091;-45
2024/01/08 06:53:13;;;;;;;0.10;0.10;;;;;;;-8.01;64.36;102694.81;15732877;28;20033;-50
2024/01/08 07:00:49;;;;;;;0.10;0.10;;;;;;;-8.20;64.94;102695.38;15732118;28;20049;-52
2024/01/08 07:08:23;;;;;;;0.10;0.10;;;;;;;-8.04;65.20;102717.47;15736822;28;20052;-49
2024/01/08 07:15:58;;;;;;;0.32;0.32;;;;;;;-8.29;66.78;102718.16;15735513;28;20443;-49
2024/01/08 07:23:32;;;;;;;0.10;0.10;;;;;;;-8.29;66.84;102732.91;15732983;28;20063;-44
2024/01/08 07:31:07;;;;;;;0.10;0.10;;;;;;;-8.14;66.89;102734.25;15736205;28;20508;-47
2024/01/08 07:38:40;;;;;;;0.10;0.10;;;;;;;-8.10;66.58;102741.97;15735637;28;20304;-45
2024/01/08 07:46:15;;;;;;;0.10;0.10;;;;;;;-8.26;68.24;102754.50;15718085;28;20068;-47
2024/01/08 07:53:52;;;;;;;0.10;0.10;;;;;;;-8.19;67.55;102765.66;15716100;28;20048;-47
2024/01/08 08:01:27;;;;;;;0.10;0.10;;;;;;;-7.89;67.87;102773.53;15732119;28;20032;-48
2024/01/08 08:09:00;;;;;;;1.33;1.15;;;;;;;-7.99;68.17;102781.59;15728913;28;20053;-48
2024/01/08 08:16:37;;;;;;;0.10;0.10;;;;;;;-7.96;68.12;102788.50;15729546;28;20446;-48
2024/01/08 08:24:10;;;;;;;0.10;0.10;;;;;;;-7.64;66.69;102805.03;15727523;28;20037;-49
2024/01/08 08:31:45;;;;;;;0.10;0.10;;;;;;;-7.77;66.87;102820.13;15730758;28;20068;-48
2024/01/08 08:39:18;;;;;;;0.10;0.10;;;;;;;-7.66;67.08;102830.25;15734091;28;20048;-46
2024/01/08 08:46:52;;;;;;;0.10;0.10;;;;;;;-7.54;66.05;102837.78;15708933;28;20041;-50
2024/01/08 08:54:26;;;;;;;0.10;0.10;;;;;;;-7.41;66.15;102848.69;15728902;28;20041;-47
2024/01/08 09:02:01;;;;;;;0.10;0.10;;;;;;;-7.25;64.97;102847.38;15726942;28;20037;-47
2024/01/08 09:09:35;;;;;;;0.10;0.10;;;;;;;-6.76;64.06;102856.38;15733817;28;20056;-45
2024/01/08 09:17:10;;;;;;;0.00;0.00;;;;;;;-6.19;61.94;102866.78;15742734;28;20428;-47
2024/01/08 09:24:44;;;;;;;0.00;0.00;;;;;;;-5.53;59.58;102879.34;15742819;28;20119;-46
2024/01/08 09:32:18;;;;;;;0.00;0.00;;;;;;;-5.01;58.54;102874.84;15724174;28;20044;-47
2024/01/08 09:39:53;;;;;;;2.40;1.42;;;;;;;-4.62;57.81;102881.22;15743251;28;20051;-48
2024/01/08 09:47:27;;;;;;;0.00;0.00;;;;;;;-4.05;55.65;102886.81;15735725;28;20129;-48
2024/01/08 09:55:04;;;;;;;0.00;0.00;;;;;;;-4.49;55.61;102889.44;15723433;28;20044;-45
2024/01/08 10:02:39;;;;;;;0.38;0.38;;;;;;;-3.99;55.45;102894.41;15723254;28;20048;-49
2024/01/08 10:10:12;;;;;;;0.00;0.00;;;;;;;-3.83;55.26;102899.03;15740664;28;20040;-48
2024/01/08 10:17:49;;;;;;;0.00;0.00;;;;;;;-3.48;54.05;102890.53;15722461;28;20048;-46
2024/01/08 10:25:23;;;;;;;0.25;0.20;;;;;;;-3.92;54.31;102888.03;15720000;28;20053;-48
2024/01/08 10:33:00;;;;;;;0.00;0.00;;;;;;;-3.57;54.33;102890.06;15740155;28;20150;-47
2024/01/08 10:40:35;;;;;;;0.00;0.00;;;;;;;-3.44;55.36;102884.22;15721208;28;20400;-50
2024/01/08 10:48:12;;;;;;;0.00;0.00;;;;;;;-3.90;54.17;102883.56;15721639;28;20043;-47
2024/01/08 10:55:46;;;;;;;0.20;0.20;;;;;;;-3.50;52.80;102879.22;15738537;28;20036;-47
2024/01/08 11:03:21;;;;;;;2.63;1.88;;;;;;;-3.60;52.63;102875.28;15727685;28;20037;-46
2024/01/08 11:11:05;;;;;;;0.00;0.00;;;;;;;-3.19;50.97;102888.38;15736892;28;20044;-50
2024/01/08 11:18:40;;;;;;;0.00;0.00;;;;;;;-2.53;48.91;102878.31;15732103;28;20068;-50
2024/01/08 11:26:19;;;;;;;1.27;1.17;;;;;;;-1.62;47.35;102880.84;15737707;28;20089;-46
2024/01/08 11:34:25;;;;;;;0.00;0.00;;;;;;;-1.14;45.37;102873.09;15720645;28;20051;-49
2024/01/08 11:41:59;;;;;;;0.55;0.55;;;;;;;-1.44;44.10;102875.56;15720623;28;20158;-50
2024/01/08 11:49:34;;;;;;;0.08;0.08;;;;;;;-0.80;42.52;102885.31;15732289;28;20128;-49
2024/01/08 11:57:09;;;;;;;0.10;0.10;;;;;;;-0.41;43.57;102873.50;15750354;22;20112;-49
2024/01/08 12:04:51;;;;;;;0.20;0.20;;;;;;;0.39;41.34;102896.16;15745473;28;20044;-49
2024/01/08 12:12:25;;;;;;;0.23;0.23;;;;;;;0.00;41.63;102892.25;15694449;28;20059;-50
2024/01/08 12:20:03;;;;;;;0.00;0.00;;;;;;;1.13;39.43;102895.19;15667196;28;20053;-51
2024/01/08 12:27:37;;;;;;;0.38;0.38;;;;;;;0.48;40.43;102893.81;15688146;28;20535;-48
2024/01/08 12:35:15;;;;;;;0.05;0.05;;;;;;;0.56;39.39;102893.38;15687440;28;20098;-49
2024/01/08 12:42:49;;;;;;;0.45;0.43;;;;;;;0.38;38.83;102891.81;15673729;28;20119;-51
2024/01/08 12:50:23;;;;;;;0.10;0.10;;;;;;;0.32;39.43;102897.44;15698979;28;20135;-49
2024/01/08 12:57:58;;;;;;;0.00;0.00;;;;;;;0.46;37.40;102902.75;15676849;28;20044;-52
2024/01/08 13:05:33;;;;;;;0.95;0.95;;;;;;;-1.01;39.66;102908.41;15689465;28;20053;-51
2024/01/08 13:13:09;;;;;;;0.00;0.00;;;;;;;-2.13;42.67;102910.63;15687842;28;20064;-50
2024/01/08 13:20:48;;;;;;;0.10;0.10;;;;;;;-2.30;42.83;102887.75;15688359;28;20049;-50
2024/01/08 13:28:21;;;;;;;0.25;0.22;;;;;;;-1.99;40.59;102916.06;15676471;28;20079;-50
2024/01/08 13:35:56;;;;;;;0.00;0.00;;;;;;;-1.87;41.82;102920.69;15667237;28;20534;-48
2024/01/08 13:43:31;;;;;;;0.10;0.10;;;;;;;-2.27;41.75;102921.81;15680982;28;20127;-51
2024/01/08 13:51:09;;;;;;;0.57;0.32;;;;;;;-1.80;42.31;102923.91;15680817;28;20056;-48
2024/01/08 13:58:44;;;;;;;0.05;0.05;;;;;;;-2.84;44.29;102934.09;15666337;28;20048;-50
2024/01/08 14:06:21;;;;;;;0.10;0.10;;;;;;;-3.50;45.61;102947.47;15674926;28;20120;-49
2024/01/08 14:13:54;;;;;;;3.13;2.38;;;;;;;-4.03;46.20;102949.69;15684915;28;20055;-49
2024/01/08 14:21:30;;;;;;;0.10;0.10;;;;;;;-4.15;45.34;102951.91;15686005;28;20102;-50
2024/01/08 14:29:05;;;;;;;1.00;0.90;;;;;;;-4.27;46.78;102977.72;15675243;28;20067;-50
2024/01/08 14:36:40;;;;;;;0.63;0.47;;;;;;;-4.34;46.43;102989.34;15675381;28;20041;-49
2024/01/08 14:44:14;;;;;;;0.10;0.10;;;;;;;-4.43;48.19;102994.06;15649811;28;20123;-50
2024/01/08 14:51:49;;;;;;;0.08;0.08;;;;;;;-4.51;47.90;103001.34;15684030;28;20037;-51
2024/01/08 14:59:25;;;;;;;0.00;0.00;;;;;;;-4.55;49.10;103004.97;15676022;28;20132;-50
2024/01/08 15:07:03;;;;;;;0.00;0.00;;;;;;;-4.67;50.74;103005.41;15674715;28;20045;-48
2024/01/08 15:14:38;;;;;;;0.30;0.30;;;;;;;-4.80;51.73;103014.63;15657607;28;20048;-52
2024/01/08 15:22:13;;;;;;;0.00;0.00;;;;;;;-4.98;53.88;103016.16;15679492;28;20512;-52
2024/01/08 15:29:46;;;;;;;0.00;0.00;;;;;;;-4.95;54.89;103021.25;15688745;28;20405;-48
2024/01/08 15:37:22;;;;;;;0.10;0.10;;;;;;;-4.89;54.86;103036.78;15685447;28;20037;-52
2024/01/08 15:44:55;;;;;;;0.08;0.08;;;;;;;-5.32;57.02;103051.31;15678057;28;20045;-48
2024/01/08 15:52:30;;;;;;;0.00;0.00;;;;;;;-5.21;57.69;103062.31;15661227;28;20045;-47
2024/01/08 16:00:05;;;;;;;0.10;0.10;;;;;;;-5.41;59.49;103056.84;15667089;28;20049;-50
2024/01/08 16:07:43;;;;;;;0.20;0.20;;;;;;;-5.29;59.30;103066.06;15681229;28;20083;-49
2024/01/08 16:15:17;;;;;;;1.08;1.02;;;;;;;-5.52;61.27;103072.06;15685283;28;20036;-48
2024/01/08 16:22:52;;;;;;;0.10;0.10;;;;;;;-5.78;61.79;103076.34;15674530;28;20052;-50
2024/01/08 16:30:25;;;;;;;0.10;0.10;;;;;;;-5.86;62.44;103074.88;15691479;28;20037;-51
2024/01/08 16:38:01;;;;;;;0.10;0.10;;;;;;;-5.83;63.28;103065.16;15695252;28;20045;-48
2024/01/08 16:45:36;;;;;;;0.05;0.05;;;;;;;-5.82;62.79;103084.34;15691382;28;20041;-50
2024/01/08 16:53:10;;;;;;;0.10;0.10;;;;;;;-5.95;63.88;103096.94;15689512;28;20041;-48
2024/01/08 17:00:44;;;;;;;0.10;0.10;;;;;;;-6.13;64.21;103092.25;15669553;28;20053;-50
2024/01/08 17:08:19;;;;;;;0.00;0.00;;;;;;;-6.02;63.75;103096.25;15686991;28;20409;-50
2024/01/08 17:15:54;;;;;;;0.00;0.00;;;;;;;-6.22;64.09;103099.47;15692818;28;20060;-48
2024/01/08 17:23:34;;;;;;;0.10;0.10;;;;;;;-6.09;63.28;103105.19;15657483;28;20060;-52
2024/01/08 17:31:09;;;;;;;0.10;0.10;;;;;;;-6.14;63.25;103120.16;15677942;28;20053;-48
2024/01/08 17:38:44;;;;;;;0.10;0.10;;;;;;;-6.31;63.72;103119.78;15682223;28;20230;-50
2024/01/08 17:46:18;;;;;;;0.10;0.10;;;;;;;-6.32;63.57;103123.28;15656472;28;20045;-49
2024/01/08 17:53:53;;;;;;;0.10;0.10;;;;;;;-6.29;64.57;103126.69;15688224;28;20057;-50
2024/01/08 18:01:27;;;;;;;0.10;0.10;;;;;;;-6.50;64.76;103140.31;15647532;28;20049;-48
2024/01/08 18:09:03;;;;;;;0.10;0.10;;;;;;;-6.24;64.03;103152.69;15680718;28;20044;-48
2024/01/08 18:16:37;;;;;;;0.05;0.05;;;;;;;-6.30;63.72;103163.28;15678375;28;20128;-50
2024/01/08 18:24:13;;;;;;;0.08;0.08;;;;;;;-6.50;64.27;103166.44;15665922;28;20136;-51
2024/01/08 18:31:46;;;;;;;0.30;0.30;;;;;;;-6.52;64.35;103171.72;15679561;28;20042;-51
2024/01/08 18:39:21;;;;;;;0.10;0.10;;;;;;;-6.27;63.28;103177.13;15677854;28;20056;-50
2024/01/08 18:46:55;;;;;;;0.10;0.10;;;;;;;-6.52;63.61;103179.56;15659123;28;20442;-48
2024/01/08 18:54:29;;;;;;;0.00;0.00;;;;;;;-6.44;62.81;103197.63;15687883;28;20079;-49
2024/01/08 19:02:03;;;;;;;0.10;0.10;;;;;;;-6.37;62.96;103186.13;15680226;28;20087;-49
2024/01/08 19:09:39;;;;;;;0.10;0.10;;;;;;;-6.44;62.87;103206.31;15665515;28;20057;-48
2024/01/08 19:17:12;;;;;;;0.10;0.10;;;;;;;-6.57;62.95;103214.53;15660014;28;20033;-54
2024/01/08 19:24:47;;;;;;;0.10;0.10;;;;;;;-6.49;62.59;103230.84;15693929;28;20083;-47
2024/01/08 19:32:21;;;;;;;0.10;0.10;;;;;;;-6.57;63.08;103230.22;15673454;28;20033;-52
2024/01/08 19:39:55;;;;;;;0.10;0.10;;;;;;;-6.65;63.60;103238.22;15650318;28;20045;-49
2024/01/08 19:47:29;;;;;;;0.08;0.08;;;;;;;-6.43;63.07;103243.78;15683657;28;20045;-50
2024/01/08 19:55:05;;;;;;;0.10;0.10;;;;;;;-6.79;63.80;103248.16;15663196;28;20057;-49
2024/01/08 20:02:40;;;;;;;0.10;0.10;;;;;;;-6.46;63.29;103249.06;15678621;28;20462;-52
2024/01/08 20:10:14;;;;;;;0.10;0.10;;;;;;;-6.58;63.00;103260.66;15678081;28;20048;-49
2024/01/08 20:17:48;;;;;;;0.10;0.10;;;;;;;-6.79;63.64;103261.19;15677901;28;20047;-53
2024/01/08 20:25:23;;;;;;;0.10;0.10;;;;;;;-6.78;63.11;103260.28;15653167;28;20049;-48
2024/01/08 20:32:57;;;;;;;0.05;0.05;;;;;;;-6.63;62.79;103269.50;15662009;28;20480;-52
2024/01/08 20:40:32;;;;;;;0.10;0.10;;;;;;;-6.71;62.85;103265.34;15678542;28;20045;-49
2024/01/08 20:48:09;;;;;;;0.10;0.10;;;;;;;-6.71;62.64;103264.50;15669951;28;20473;-51
2024/01/08 20:55:46;;;;;;;0.10;0.10;;;;;;;-6.71;62.88;103274.94;15684186;28;20055;-54
2024/01/08 21:03:22;;;;;;;0.10;0.10;;;;;;;-6.88;62.99;103277.94;15679546;28;20044;-48
2024/01/08 21:10:58;;;;;;;0.10;0.10;;;;;;;-6.90;62.08;103277.13;15662986;28;20706;-48
2024/01/08 21:18:32;;;;;;;0.08;0.08;;;;;;;-6.87;62.26;103268.34;15649902;28;20525;-52
2024/01/08 21:26:07;;;;;;;0.10;0.10;;;;;;;-6.51;61.41;103272.69;15687893;28;20053;-49
2024/01/08 21:33:41;;;;;;;0.10;0.10;;;;;;;-6.80;61.96;103278.63;15681115;28;20044;-50
2024/01/08 21:41:16;;;;;;;0.17;0.17;;;;;;;-6.57;61.55;103291.16;15670442;28;20040;-47
2024/01/08 21:48:49;;;;;;;0.57;0.57;;;;;;;-6.33;61.14;103276.63;15674511;28;20126;-51
2024/01/08 21:56:24;;;;;;;0.08;0.08;;;;;;;-6.87;62.49;103286.63;15643798;28;20122;-51
2024/01/08 22:03:59;;;;;;;0.10;0.10;;;;;;;-6.90;62.01;103282.34;15656767;28;20119;-49
2024/01/08 22:11:35;;;;;;;0.10;0.10;;;;;;;-6.97;63.13;103299.03;15675954;28;20588;-52
2024/01/08 22:19:09;;;;;;;0.10;0.10;;;;;;;-7.26;63.74;103313.56;15622055;28;20555;-49
2024/01/08 22:26:44;;;;;;;0.10;0.10;;;;;;;-7.27;64.21;103318.81;15658224;28;20045;-49
2024/01/08 22:34:18;;;;;;;0.10;0.10;;;;;;;-7.48;64.11;103320.09;15664027;28;20037;-47
2024/01/08 22:41:56;;;;;;;0.10;0.10;;;;;;;-7.27;63.41;103290.97;15681997;28;20077;-49
2024/01/08 22:49:30;;;;;;;0.55;0.55;;;;;;;-6.54;62.58;103303.25;15659739;28;20104;-48
2024/01/08 22:57:05;;;;;;;0.10;0.10;;;;;;;-6.44;61.72;103312.59;15659093;28;20449;-51
2024/01/08 23:04:42;;;;;;;0.10;0.10;;;;;;;-6.29;61.29;103303.53;15666957;28;20057;-49
2024/01/08 23:12:18;;;;;;;0.10;0.10;;;;;;;-6.33;61.54;103296.66;15645255;28;20049;-50
2024/01/08 23:19:53;;;;;;;0.10;0.10;;;;;;;-7.42;66.41;103298.25;15661919;28;20083;-48
2024/01/08 23:27:28;;;;;;;0.10;0.10;;;;;;;-7.13;64.38;103302.84;15652360;28;20103;-50
2024/01/08 23:35:01;;;;;;;0.10;0.10;;;;;;;-7.34;64.35;103288.53;15658970;28;20044;-50
2024/01/08 23:42:38;;;;;;;0.17;0.17;;;;;;;-7.50;64.65;103288.00;15659926;28;20041;-49
2024/01/08 23:50:11;;;;;;;0.10;0.10;;;;;;;-7.94;66.33;103288.81;15664512;28;20048;-48
2024/01/08 23:57:46;;;;;;;1.65;1.55;;;;;;;-7.79;66.26;103294.59;15667955;28;20037;-49
